createdAt,value
2017-07-16T00:02:37.096Z,79.00
2017-07-16T00:07:24.046Z,78.70
2017-07-16T00:12:10.781Z,79.10
2017-07-16T00:16:57.428Z,78.00
2017-07-16T00:21:44.123Z,79.90
2017-07-16T00:26:30.753Z,80.20
2017-07-16T00:31:18.112Z,82.10
2017-07-16T00:36:04.814Z,81.90
2017-07-16T00:40:52.176Z,81.50
2017-07-16T00:45:39.249Z,81.30
2017-07-16T00:50:25.917Z,82.10
2017-07-16T00:55:12.570Z,83.20
2017-07-16T00:59:59.240Z,82.90
2017-07-16T01:04:46.670Z,82.50
2017-07-16T01:09:34.037Z,83.60
2017-07-16T01:14:20.670Z,82.80
2017-07-16T01:19:07.316Z,82.40
2017-07-16T01:23:53.985Z,81.80
2017-07-16T01:28:41.348Z,82.70
2017-07-16T01:33:27.979Z,82.70
2017-07-16T01:38:14.623Z,83.30
2017-07-16T01:43:01.402Z,82.90
2017-07-16T01:47:48.351Z,83.80
2017-07-16T01:52:35.013Z,84.80
2017-07-16T01:57:22.340Z,86.50
2017-07-16T02:02:08.951Z,85.60
2017-07-16T02:06:55.589Z,87.00
2017-07-16T02:11:42.234Z,86.50
2017-07-16T02:16:29.415Z,87.20
2017-07-16T02:21:16.120Z,87.40
2017-07-16T02:26:02.776Z,86.40
2017-07-16T02:30:49.520Z,87.80
2017-07-16T02:35:37.235Z,86.70
2017-07-16T02:40:23.867Z,86.70
2017-07-16T02:45:10.474Z,86.80
2017-07-16T02:49:57.083Z,85.70
2017-07-16T02:54:43.796Z,85.40
2017-07-16T02:59:30.460Z,86.90
2017-07-16T03:04:17.091Z,85.60
2017-07-16T03:09:04.492Z,86.10
2017-07-16T03:13:51.521Z,86.10
2017-07-16T03:18:38.318Z,87.40
2017-07-16T03:23:25.071Z,87.40
2017-07-16T03:28:11.739Z,87.20
2017-07-16T03:32:58.361Z,87.30
2017-07-16T03:37:45.074Z,87.90
2017-07-16T03:42:32.260Z,87.70
2017-07-16T03:47:18.888Z,88.70
2017-07-16T03:52:05.687Z,89.00
2017-07-16T03:56:52.307Z,89.30
2017-07-16T04:01:39.289Z,89.70
2017-07-16T04:06:26.696Z,90.50
2017-07-16T04:11:13.587Z,90.50
2017-07-16T04:16:00.295Z,90.20
2017-07-16T04:20:46.923Z,90.10
2017-07-16T04:25:33.625Z,90.20
2017-07-16T04:30:20.806Z,90.30
2017-07-16T04:35:07.432Z,90.40
2017-07-16T04:39:54.036Z,90.40
2017-07-16T04:44:40.685Z,90.10
2017-07-16T04:49:27.300Z,90.10
2017-07-16T04:54:14.755Z,89.70
2017-07-16T04:59:01.668Z,89.70
2017-07-16T05:03:48.407Z,89.50
2017-07-16T05:08:35.896Z,88.40
2017-07-16T05:13:22.658Z,88.50
2017-07-16T05:18:09.431Z,88.90
2017-07-16T05:22:56.074Z,87.40
2017-07-16T05:27:43.111Z,86.70
2017-07-16T05:32:29.783Z,85.60
2017-07-16T05:37:16.399Z,85.80
2017-07-16T05:42:03.118Z,85.00
2017-07-16T05:46:50.494Z,85.30
2017-07-16T05:51:37.135Z,85.20
2017-07-16T05:56:23.767Z,84.50
2017-07-16T06:01:10.776Z,84.30
2017-07-16T06:05:57.396Z,84.30
2017-07-16T06:10:44.017Z,83.10
2017-07-16T06:15:30.698Z,82.40
2017-07-16T06:20:17.403Z,83.10
2017-07-16T06:25:05.250Z,77.90
2017-07-16T06:29:53.066Z,77.20
2017-07-16T06:34:39.783Z,77.20
2017-07-16T06:39:26.438Z,75.40
2017-07-16T06:44:13.841Z,70.20
2017-07-16T06:49:07.322Z,70.20
2017-07-16T06:53:53.985Z,69.40
2017-07-16T06:58:40.615Z,68.10
2017-07-16T07:03:27.685Z,71.20
2017-07-16T07:08:14.445Z,67.90
2017-07-16T07:13:01.818Z,65.40
2017-07-16T07:17:48.450Z,65.30
2017-07-16T07:22:35.052Z,63.90
2017-07-16T07:27:21.761Z,63.80
2017-07-16T07:32:08.501Z,64.00
2017-07-16T07:36:55.128Z,60.60
2017-07-16T07:41:42.051Z,61.30
2017-07-16T07:46:28.708Z,59.40
2017-07-16T07:51:15.381Z,59.10
2017-07-16T07:56:02.131Z,60.80
2017-07-16T08:00:48.909Z,59.70
2017-07-16T08:05:36.383Z,56.60
2017-07-16T08:10:23.041Z,56.60
2017-07-16T08:15:09.700Z,57.90
2017-07-16T08:19:56.365Z,58.70
2017-07-16T08:24:43.005Z,56.50
2017-07-16T08:29:29.629Z,56.60
2017-07-16T08:34:16.243Z,53.70
2017-07-16T08:39:02.929Z,54.30
2017-07-16T08:43:49.548Z,53.60
2017-07-16T08:48:36.196Z,53.20
2017-07-16T08:53:22.868Z,54.50
2017-07-16T08:58:09.515Z,52.30
2017-07-16T09:02:56.288Z,51.10
2017-07-16T09:07:43.669Z,49.60
2017-07-16T09:12:30.394Z,49.50
2017-07-16T09:17:17.061Z,49.50
2017-07-16T09:22:04.494Z,49.80
2017-07-16T09:26:51.091Z,49.70
2017-07-16T09:31:37.725Z,48.20
2017-07-16T09:36:24.380Z,48.10
2017-07-16T09:41:11.086Z,49.40
2017-07-16T09:45:58.472Z,42.70
2017-07-16T09:50:45.446Z,42.80
2017-07-16T09:55:32.845Z,43.40
2017-07-16T10:00:19.470Z,43.20
2017-07-16T10:05:06.102Z,45.50
2017-07-16T10:09:52.740Z,43.90
2017-07-16T10:14:39.373Z,42.00
2017-07-16T10:19:26.757Z,41.50
2017-07-16T10:24:13.422Z,41.70
2017-07-16T10:29:01.146Z,38.70
2017-07-16T10:33:47.773Z,38.60
2017-07-16T10:38:34.541Z,38.20
2017-07-16T10:43:21.288Z,37.80
2017-07-16T10:48:08.088Z,37.10
2017-07-16T10:52:54.756Z,37.40
2017-07-16T10:57:41.691Z,37.20
2017-07-16T11:02:28.437Z,35.80
2017-07-16T11:07:15.095Z,40.90
2017-07-16T11:12:01.791Z,37.00
2017-07-16T11:16:48.463Z,37.00
2017-07-16T11:21:35.121Z,36.50
2017-07-16T11:26:22.782Z,37.40
2017-07-16T11:31:09.434Z,37.40
2017-07-16T11:35:56.105Z,33.60
2017-07-16T11:40:42.766Z,33.80
2017-07-16T11:45:29.457Z,36.20
2017-07-16T11:50:16.162Z,39.60
2017-07-16T11:55:03.573Z,41.90
2017-07-16T11:59:50.190Z,41.80
2017-07-16T12:04:36.832Z,40.30
2017-07-16T12:09:23.472Z,40.90
2017-07-16T12:14:10.577Z,40.80
2017-07-16T12:18:57.188Z,45.80
2017-07-16T12:23:43.881Z,45.10
2017-07-16T12:28:30.554Z,44.20
2017-07-16T12:33:17.988Z,43.70
2017-07-16T12:38:04.601Z,43.40
2017-07-16T12:42:51.557Z,42.70
2017-07-16T12:47:38.229Z,38.00
2017-07-16T12:52:24.981Z,37.10
2017-07-16T12:57:12.423Z,39.50
2017-07-16T13:01:59.123Z,39.40
2017-07-16T13:06:45.761Z,38.50
2017-07-16T13:11:33.162Z,36.20
2017-07-16T13:16:21.182Z,36.20
2017-07-16T13:21:07.846Z,40.30
2017-07-16T13:25:54.480Z,41.10
2017-07-16T13:30:41.191Z,37.80
2017-07-16T13:35:27.931Z,40.90
2017-07-16T13:40:14.612Z,40.10
2017-07-16T13:45:01.224Z,43.10
2017-07-16T13:49:47.908Z,41.80
2017-07-16T13:54:34.540Z,41.30
2017-07-16T13:59:21.193Z,42.40
2017-07-16T14:04:08.135Z,40.60
2017-07-16T14:08:54.759Z,41.20
2017-07-16T14:13:41.415Z,41.40
2017-07-16T14:18:28.811Z,43.00
2017-07-16T14:23:15.459Z,42.90
2017-07-16T14:28:02.113Z,41.60
2017-07-16T14:32:49.043Z,42.40
2017-07-16T14:37:35.724Z,40.80
2017-07-16T14:42:22.510Z,43.60
2017-07-16T14:47:09.170Z,42.20
2017-07-16T14:51:56.192Z,38.90
2017-07-16T14:56:42.846Z,40.50
2017-07-16T15:01:29.524Z,40.50
2017-07-16T15:06:16.156Z,43.50
2017-07-16T15:11:02.871Z,42.00
2017-07-16T15:15:49.578Z,38.70
2017-07-16T15:20:36.274Z,43.10
2017-07-16T15:25:23.236Z,46.20
2017-07-16T15:30:09.836Z,41.20
2017-07-16T15:34:56.517Z,39.50
2017-07-16T15:39:43.187Z,42.70
2017-07-16T15:44:30.171Z,42.70
2017-07-16T15:49:16.842Z,39.10
2017-07-16T15:54:03.522Z,37.50
2017-07-16T15:58:50.158Z,38.10
2017-07-16T16:03:36.812Z,36.00
2017-07-16T16:08:23.513Z,38.50
2017-07-16T16:13:10.270Z,39.50
2017-07-16T16:17:57.025Z,36.10
2017-07-16T16:22:43.761Z,38.70
2017-07-16T16:27:30.433Z,40.30
2017-07-16T16:32:17.068Z,39.00
2017-07-16T16:37:04.456Z,37.00
2017-07-16T16:41:51.109Z,36.90
2017-07-16T16:46:38.019Z,40.20
2017-07-16T16:51:24.720Z,37.70
2017-07-16T16:56:11.364Z,38.30
2017-07-16T17:00:58.012Z,40.00
2017-07-16T17:05:45.504Z,41.80
2017-07-16T17:10:32.309Z,41.70
2017-07-16T17:15:19.359Z,42.30
2017-07-16T17:20:05.982Z,43.70
2017-07-16T17:24:52.840Z,41.80
2017-07-16T17:29:39.527Z,43.30
2017-07-16T17:34:26.173Z,44.20
2017-07-16T17:39:13.133Z,40.10
2017-07-16T17:43:59.784Z,40.60
2017-07-16T17:48:46.513Z,43.70
2017-07-16T17:53:33.212Z,43.50
2017-07-16T17:58:19.951Z,44.80
2017-07-16T18:03:07.018Z,44.40
2017-07-16T18:07:53.695Z,43.70
2017-07-16T18:12:40.483Z,46.90
2017-07-16T18:17:27.934Z,46.60
2017-07-16T18:22:14.603Z,46.50
2017-07-16T18:27:01.267Z,49.30
2017-07-16T18:31:48.995Z,51.10
2017-07-16T18:36:35.646Z,51.00
2017-07-16T18:41:22.552Z,52.20
2017-07-16T18:46:09.229Z,53.60
2017-07-16T18:50:55.907Z,55.80
2017-07-16T18:55:42.916Z,57.60
2017-07-16T19:00:29.565Z,57.70
2017-07-16T19:05:16.302Z,60.70
2017-07-16T19:10:03.053Z,61.10
2017-07-16T19:14:49.810Z,61.70
2017-07-16T19:19:37.249Z,61.90
2017-07-16T19:24:24.747Z,62.60
2017-07-16T19:29:11.502Z,62.60
2017-07-16T19:33:58.321Z,64.20
2017-07-16T19:38:45.380Z,65.90
2017-07-16T19:43:32.223Z,68.10
2017-07-16T19:48:19.030Z,67.90
2017-07-16T19:53:06.472Z,69.00
2017-07-16T19:57:54.026Z,70.60
2017-07-16T20:02:40.746Z,70.50
2017-07-16T20:07:27.677Z,70.20
2017-07-16T20:12:14.343Z,68.50
2017-07-16T20:17:01.087Z,70.10
2017-07-16T20:21:47.750Z,70.20
2017-07-16T20:26:35.008Z,70.60
2017-07-16T20:31:22.018Z,71.50
2017-07-16T20:36:08.764Z,74.10
2017-07-16T20:40:55.461Z,75.10
2017-07-16T20:45:42.165Z,75.80
2017-07-16T20:50:28.929Z,76.50
2017-07-16T20:55:15.613Z,76.30
2017-07-16T21:00:02.616Z,75.60
2017-07-16T21:04:49.285Z,75.00
2017-07-16T21:09:35.906Z,75.70
2017-07-16T21:14:22.569Z,74.60
2017-07-16T21:19:09.960Z,72.70
2017-07-16T21:23:56.902Z,72.70
2017-07-16T21:28:43.553Z,73.80
2017-07-16T21:33:30.965Z,74.40
2017-07-16T21:38:17.600Z,73.50
2017-07-16T21:43:04.283Z,74.00
2017-07-16T21:47:51.214Z,73.50
2017-07-16T21:52:37.840Z,72.50
2017-07-16T21:57:24.478Z,71.80
2017-07-16T22:02:11.123Z,75.60
2017-07-16T22:06:57.757Z,75.40
2017-07-16T22:11:45.252Z,76.40
2017-07-16T22:16:32.185Z,76.30
2017-07-16T22:21:18.861Z,76.80
2017-07-16T22:26:05.541Z,77.70
2017-07-16T22:30:52.303Z,76.70
2017-07-16T22:35:39.068Z,77.60
2017-07-16T22:40:25.704Z,77.40
2017-07-16T22:45:13.068Z,72.90
2017-07-16T22:50:00.469Z,74.90
2017-07-16T22:54:47.085Z,74.90
2017-07-16T22:59:33.720Z,78.60
2017-07-16T23:04:20.653Z,77.00
2017-07-16T23:09:07.241Z,78.00
2017-07-16T23:13:53.882Z,78.40
2017-07-16T23:18:40.519Z,77.90
2017-07-16T23:23:27.254Z,78.20
2017-07-16T23:28:14.946Z,77.50
2017-07-16T23:33:01.563Z,77.50
2017-07-16T23:37:48.186Z,77.60
2017-07-16T23:42:34.811Z,79.80
2017-07-16T23:47:21.549Z,80.30
2017-07-16T23:52:08.568Z,81.60
2017-07-16T23:56:55.405Z,81.60
